sensor_id;sensor_type;location;lat;lon;timestamp;P1;durP1;ratioP1;P2;durP2;ratioP2
46507;SDS011;32223;53.654;10.014;2023-06-26T00:00:12;10.57;;;6.82;;
46507;SDS011;32223;53.654;10.014;2023-06-26T00:05:04;9.20;;;7.13;;
46507;SDS011;32223;53.654;10.014;2023-06-26T00:07:30;7.55;;;6.53;;
46507;SDS011;32223;53.654;10.014;2023-06-26T00:09:58;8.93;;;8.00;;
46507;SDS011;32223;53.654;10.014;2023-06-26T00:12:25;8.05;;;7.10;;
46507;SDS011;32223;53.654;10.014;2023-06-26T00:14:51;7.85;;;7.05;;
46507;SDS011;32223;53.654;10.014;2023-06-26T00:17:17;7.18;;;6.47;;
46507;SDS011;32223;53.654;10.014;2023-06-26T00:19:43;7.93;;;7.13;;
46507;SDS011;32223;53.654;10.014;2023-06-26T00:22:08;9.23;;;7.63;;
46507;SDS011;32223;53.654;10.014;2023-06-26T00:24:34;9.40;;;7.97;;
46507;SDS011;32223;53.654;10.014;2023-06-26T00:26:59;7.95;;;7.15;;
46507;SDS011;32223;53.654;10.014;2023-06-26T00:29:25;8.50;;;7.68;;
46507;SDS011;32223;53.654;10.014;2023-06-26T00:31:51;10.10;;;7.78;;
46507;SDS011;32223;53.654;10.014;2023-06-26T00:34:16;8.57;;;6.60;;
46507;SDS011;32223;53.654;10.014;2023-06-26T00:36:42;8.65;;;7.75;;
46507;SDS011;32223;53.654;10.014;2023-06-26T00:39:08;7.93;;;7.13;;
46507;SDS011;32223;53.654;10.014;2023-06-26T00:41:35;8.73;;;7.60;;
46507;SDS011;32223;53.654;10.014;2023-06-26T00:44:04;8.80;;;7.18;;
46507;SDS011;32223;53.654;10.014;2023-06-26T00:46:31;8.80;;;7.93;;
46507;SDS011;32223;53.654;10.014;2023-06-26T00:48:58;8.50;;;7.60;;
46507;SDS011;32223;53.654;10.014;2023-06-26T00:51:25;9.75;;;7.82;;
46507;SDS011;32223;53.654;10.014;2023-06-26T00:53:52;8.75;;;6.93;;
46507;SDS011;32223;53.654;10.014;2023-06-26T00:56:19;10.68;;;8.10;;
46507;SDS011;32223;53.654;10.014;2023-06-26T00:58:45;8.48;;;7.60;;
46507;SDS011;32223;53.654;10.014;2023-06-26T01:01:11;8.52;;;7.65;;
46507;SDS011;32223;53.654;10.014;2023-06-26T01:03:41;10.07;;;8.00;;
46507;SDS011;32223;53.654;10.014;2023-06-26T01:06:11;9.75;;;8.48;;
46507;SDS011;32223;53.654;10.014;2023-06-26T01:08:39;7.95;;;7.15;;
46507;SDS011;32223;53.654;10.014;2023-06-26T01:11:06;10.07;;;8.52;;
46507;SDS011;32223;53.654;10.014;2023-06-26T01:13:32;8.80;;;7.90;;
46507;SDS011;32223;53.654;10.014;2023-06-26T01:15:59;9.60;;;7.78;;
46507;SDS011;32223;53.654;10.014;2023-06-26T01:18:25;9.35;;;8.35;;
46507;SDS011;32223;53.654;10.014;2023-06-26T01:20:51;10.27;;;9.18;;
46507;SDS011;32223;53.654;10.014;2023-06-26T01:23:29;8.70;;;7.63;;
46507;SDS011;32223;53.654;10.014;2023-06-26T01:26:19;8.30;;;7.45;;
46507;SDS011;32223;53.654;10.014;2023-06-26T01:28:46;9.63;;;8.02;;
46507;SDS011;32223;53.654;10.014;2023-06-26T01:31:12;9.05;;;8.15;;
46507;SDS011;32223;53.654;10.014;2023-06-26T01:33:39;9.05;;;7.75;;
46507;SDS011;32223;53.654;10.014;2023-06-26T01:36:06;9.32;;;8.35;;
46507;SDS011;32223;53.654;10.014;2023-06-26T01:38:32;8.90;;;8.00;;
46507;SDS011;32223;53.654;10.014;2023-06-26T01:40:59;9.85;;;7.70;;
46507;SDS011;32223;53.654;10.014;2023-06-26T01:54:49;10.23;;;9.23;;
46507;SDS011;32223;53.654;10.014;2023-06-26T01:57:20;10.52;;;8.35;;
46507;SDS011;32223;53.654;10.014;2023-06-26T01:59:48;11.30;;;8.48;;
46507;SDS011;32223;53.654;10.014;2023-06-26T02:02:14;9.65;;;8.10;;
46507;SDS011;32223;53.654;10.014;2023-06-26T02:04:40;10.13;;;8.73;;
46507;SDS011;32223;53.654;10.014;2023-06-26T02:07:06;9.63;;;8.27;;
46507;SDS011;32223;53.654;10.014;2023-06-26T02:09:34;9.88;;;8.55;;
46507;SDS011;32223;53.654;10.014;2023-06-26T02:12:00;9.13;;;8.07;;
46507;SDS011;32223;53.654;10.014;2023-06-26T02:14:25;9.55;;;8.65;;
46507;SDS011;32223;53.654;10.014;2023-06-26T02:16:51;11.02;;;8.90;;
46507;SDS011;32223;53.654;10.014;2023-06-26T02:19:16;10.48;;;8.43;;
46507;SDS011;32223;53.654;10.014;2023-06-26T02:21:47;8.80;;;7.88;;
46507;SDS011;32223;53.654;10.014;2023-06-26T02:24:14;9.70;;;8.18;;
46507;SDS011;32223;53.654;10.014;2023-06-26T02:26:39;10.13;;;8.85;;
46507;SDS011;32223;53.654;10.014;2023-06-26T02:29:05;8.52;;;7.70;;
46507;SDS011;32223;53.654;10.014;2023-06-26T02:31:31;8.93;;;7.40;;
46507;SDS011;32223;53.654;10.014;2023-06-26T02:33:56;9.52;;;8.30;;
46507;SDS011;32223;53.654;10.014;2023-06-26T02:36:22;9.85;;;8.27;;
46507;SDS011;32223;53.654;10.014;2023-06-26T02:38:48;9.05;;;7.88;;
46507;SDS011;32223;53.654;10.014;2023-06-26T02:41:13;10.00;;;8.73;;
46507;SDS011;32223;53.654;10.014;2023-06-26T02:43:39;9.18;;;7.60;;
46507;SDS011;32223;53.654;10.014;2023-06-26T02:46:04;9.48;;;8.48;;
46507;SDS011;32223;53.654;10.014;2023-06-26T02:48:30;10.88;;;8.05;;
46507;SDS011;32223;53.654;10.014;2023-06-26T02:50:55;8.98;;;7.95;;
46507;SDS011;32223;53.654;10.014;2023-06-26T02:53:21;11.25;;;8.25;;
46507;SDS011;32223;53.654;10.014;2023-06-26T02:55:47;9.38;;;8.25;;
46507;SDS011;32223;53.654;10.014;2023-06-26T02:58:12;8.15;;;7.35;;
46507;SDS011;32223;53.654;10.014;2023-06-26T03:00:38;9.82;;;7.93;;
46507;SDS011;32223;53.654;10.014;2023-06-26T03:03:06;8.90;;;7.60;;
46507;SDS011;32223;53.654;10.014;2023-06-26T03:05:32;9.90;;;8.07;;
46507;SDS011;32223;53.654;10.014;2023-06-26T03:07:58;9.90;;;8.30;;
46507;SDS011;32223;53.654;10.014;2023-06-26T03:10:24;9.88;;;8.60;;
46507;SDS011;32223;53.654;10.014;2023-06-26T03:12:49;9.10;;;8.15;;
46507;SDS011;32223;53.654;10.014;2023-06-26T03:15:15;9.77;;;8.10;;
46507;SDS011;32223;53.654;10.014;2023-06-26T03:17:40;9.50;;;7.80;;
46507;SDS011;32223;53.654;10.014;2023-06-26T03:20:06;10.55;;;8.00;;
46507;SDS011;32223;53.654;10.014;2023-06-26T03:22:33;11.40;;;6.97;;
46507;SDS011;32223;53.654;10.014;2023-06-26T03:24:59;10.20;;;7.63;;
46507;SDS011;32223;53.654;10.014;2023-06-26T03:27:24;9.65;;;7.75;;
46507;SDS011;32223;53.654;10.014;2023-06-26T03:29:51;9.80;;;8.73;;
46507;SDS011;32223;53.654;10.014;2023-06-26T03:32:17;9.77;;;8.77;;
46507;SDS011;32223;53.654;10.014;2023-06-26T03:34:43;9.80;;;8.30;;
46507;SDS011;32223;53.654;10.014;2023-06-26T03:37:08;10.13;;;7.95;;
46507;SDS011;32223;53.654;10.014;2023-06-26T03:39:34;8.45;;;7.55;;
46507;SDS011;32223;53.654;10.014;2023-06-26T03:41:59;8.40;;;7.47;;
46507;SDS011;32223;53.654;10.014;2023-06-26T03:44:26;9.05;;;7.95;;
46507;SDS011;32223;53.654;10.014;2023-06-26T03:46:52;8.73;;;6.93;;
46507;SDS011;32223;53.654;10.014;2023-06-26T03:49:18;8.02;;;6.90;;
46507;SDS011;32223;53.654;10.014;2023-06-26T03:51:44;11.30;;;7.40;;
46507;SDS011;32223;53.654;10.014;2023-06-26T03:54:10;8.85;;;7.85;;
46507;SDS011;32223;53.654;10.014;2023-06-26T03:56:35;9.48;;;7.55;;
46507;SDS011;32223;53.654;10.014;2023-06-26T03:59:01;8.27;;;6.95;;
46507;SDS011;32223;53.654;10.014;2023-06-26T04:01:28;9.90;;;7.35;;
46507;SDS011;32223;53.654;10.014;2023-06-26T04:03:53;9.50;;;7.43;;
46507;SDS011;32223;53.654;10.014;2023-06-26T04:06:19;7.05;;;5.95;;
46507;SDS011;32223;53.654;10.014;2023-06-26T04:08:45;8.32;;;7.18;;
46507;SDS011;32223;53.654;10.014;2023-06-26T04:11:10;12.07;;;6.82;;
46507;SDS011;32223;53.654;10.014;2023-06-26T04:13:36;8.38;;;7.00;;
46507;SDS011;32223;53.654;10.014;2023-06-26T04:16:01;7.70;;;6.82;;
46507;SDS011;32223;53.654;10.014;2023-06-26T04:18:27;8.75;;;7.57;;
46507;SDS011;32223;53.654;10.014;2023-06-26T04:21:09;8.35;;;6.90;;
46507;SDS011;32223;53.654;10.014;2023-06-26T04:23:36;10.75;;;8.05;;
46507;SDS011;32223;53.654;10.014;2023-06-26T04:26:03;10.40;;;7.82;;
46507;SDS011;32223;53.654;10.014;2023-06-26T04:28:32;9.13;;;6.63;;
46507;SDS011;32223;53.654;10.014;2023-06-26T04:30:59;8.40;;;6.93;;
46507;SDS011;32223;53.654;10.014;2023-06-26T04:33:26;6.90;;;6.10;;
46507;SDS011;32223;53.654;10.014;2023-06-26T04:35:52;7.78;;;6.97;;
46507;SDS011;32223;53.654;10.014;2023-06-26T04:38:18;10.68;;;5.93;;
46507;SDS011;32223;53.654;10.014;2023-06-26T04:40:44;6.93;;;5.95;;
46507;SDS011;32223;53.654;10.014;2023-06-26T04:43:10;8.52;;;6.68;;
46507;SDS011;32223;53.654;10.014;2023-06-26T04:45:36;9.73;;;6.25;;
46507;SDS011;32223;53.654;10.014;2023-06-26T04:48:02;12.82;;;9.65;;
46507;SDS011;32223;53.654;10.014;2023-06-26T04:50:27;9.57;;;7.50;;
46507;SDS011;32223;53.654;10.014;2023-06-26T04:52:54;9.05;;;6.90;;
46507;SDS011;32223;53.654;10.014;2023-06-26T04:55:20;9.70;;;6.72;;
46507;SDS011;32223;53.654;10.014;2023-06-26T04:57:46;7.07;;;6.38;;
46507;SDS011;32223;53.654;10.014;2023-06-26T05:00:12;8.63;;;6.70;;
46507;SDS011;32223;53.654;10.014;2023-06-26T05:02:39;7.80;;;6.47;;
46507;SDS011;32223;53.654;10.014;2023-06-26T05:05:04;8.55;;;5.63;;
46507;SDS011;32223;53.654;10.014;2023-06-26T05:07:30;7.22;;;6.30;;
46507;SDS011;32223;53.654;10.014;2023-06-26T05:09:56;9.57;;;6.88;;
46507;SDS011;32223;53.654;10.014;2023-06-26T05:12:21;10.00;;;7.95;;
46507;SDS011;32223;53.654;10.014;2023-06-26T05:14:47;8.18;;;6.82;;
46507;SDS011;32223;53.654;10.014;2023-06-26T05:17:13;7.90;;;5.55;;
46507;SDS011;32223;53.654;10.014;2023-06-26T05:19:39;7.88;;;6.40;;
46507;SDS011;32223;53.654;10.014;2023-06-26T05:22:05;9.25;;;5.93;;
46507;SDS011;32223;53.654;10.014;2023-06-26T05:24:33;9.73;;;7.13;;
46507;SDS011;32223;53.654;10.014;2023-06-26T05:27:02;18.10;;;14.45;;
46507;SDS011;32223;53.654;10.014;2023-06-26T05:29:30;9.70;;;8.40;;
46507;SDS011;32223;53.654;10.014;2023-06-26T05:31:56;8.85;;;6.60;;
46507;SDS011;32223;53.654;10.014;2023-06-26T05:34:25;7.50;;;6.10;;
46507;SDS011;32223;53.654;10.014;2023-06-26T05:36:54;6.95;;;5.18;;
46507;SDS011;32223;53.654;10.014;2023-06-26T05:39:22;7.35;;;5.82;;
46507;SDS011;32223;53.654;10.014;2023-06-26T05:41:49;7.65;;;5.70;;
46507;SDS011;32223;53.654;10.014;2023-06-26T05:44:15;7.28;;;6.03;;
46507;SDS011;32223;53.654;10.014;2023-06-26T05:46:40;8.85;;;5.85;;
46507;SDS011;32223;53.654;10.014;2023-06-26T05:49:06;7.25;;;5.97;;
46507;SDS011;32223;53.654;10.014;2023-06-26T05:51:32;6.00;;;5.38;;
46507;SDS011;32223;53.654;10.014;2023-06-26T05:53:57;6.47;;;5.13;;
46507;SDS011;32223;53.654;10.014;2023-06-26T05:56:23;6.28;;;5.05;;
46507;SDS011;32223;53.654;10.014;2023-06-26T05:58:49;9.27;;;5.55;;
46507;SDS011;32223;53.654;10.014;2023-06-26T06:01:17;9.07;;;5.35;;
46507;SDS011;32223;53.654;10.014;2023-06-26T06:03:42;7.93;;;5.32;;
46507;SDS011;32223;53.654;10.014;2023-06-26T06:06:08;6.78;;;5.10;;
46507;SDS011;32223;53.654;10.014;2023-06-26T06:08:33;6.53;;;4.80;;
46507;SDS011;32223;53.654;10.014;2023-06-26T06:10:59;9.15;;;5.45;;
46507;SDS011;32223;53.654;10.014;2023-06-26T06:13:25;6.70;;;4.80;;
46507;SDS011;32223;53.654;10.014;2023-06-26T06:15:51;6.47;;;5.22;;
46507;SDS011;32223;53.654;10.014;2023-06-26T06:18:16;8.07;;;5.40;;
46507;SDS011;32223;53.654;10.014;2023-06-26T06:20:42;7.15;;;5.15;;
46507;SDS011;32223;53.654;10.014;2023-06-26T06:23:08;6.72;;;4.97;;
46507;SDS011;32223;53.654;10.014;2023-06-26T06:25:33;9.95;;;5.15;;
46507;SDS011;32223;53.654;10.014;2023-06-26T06:27:59;7.18;;;5.07;;
46507;SDS011;32223;53.654;10.014;2023-06-26T06:30:24;7.72;;;5.20;;
46507;SDS011;32223;53.654;10.014;2023-06-26T06:32:50;8.00;;;5.03;;
46507;SDS011;32223;53.654;10.014;2023-06-26T06:35:18;6.25;;;5.03;;
46507;SDS011;32223;53.654;10.014;2023-06-26T06:37:43;8.48;;;4.70;;
46507;SDS011;32223;53.654;10.014;2023-06-26T06:40:09;8.82;;;5.82;;
46507;SDS011;32223;53.654;10.014;2023-06-26T06:42:35;6.80;;;5.18;;
46507;SDS011;32223;53.654;10.014;2023-06-26T06:45:02;8.25;;;5.35;;
46507;SDS011;32223;53.654;10.014;2023-06-26T06:47:28;11.82;;;6.93;;
46507;SDS011;32223;53.654;10.014;2023-06-26T06:49:54;7.38;;;5.47;;
46507;SDS011;32223;53.654;10.014;2023-06-26T06:52:20;9.40;;;5.20;;
46507;SDS011;32223;53.654;10.014;2023-06-26T06:54:52;7.78;;;5.18;;
46507;SDS011;32223;53.654;10.014;2023-06-26T06:57:24;8.68;;;5.50;;
46507;SDS011;32223;53.654;10.014;2023-06-26T06:59:50;6.82;;;4.68;;
46507;SDS011;32223;53.654;10.014;2023-06-26T07:02:16;7.32;;;5.25;;
46507;SDS011;32223;53.654;10.014;2023-06-26T07:04:42;8.45;;;5.00;;
46507;SDS011;32223;53.654;10.014;2023-06-26T07:07:08;6.95;;;4.70;;
46507;SDS011;32223;53.654;10.014;2023-06-26T07:09:34;6.93;;;4.97;;
46507;SDS011;32223;53.654;10.014;2023-06-26T07:12:00;8.43;;;4.95;;
46507;SDS011;32223;53.654;10.014;2023-06-26T07:14:26;7.78;;;5.60;;
46507;SDS011;32223;53.654;10.014;2023-06-26T07:16:52;7.25;;;5.35;;
46507;SDS011;32223;53.654;10.014;2023-06-26T07:19:17;8.52;;;5.10;;
46507;SDS011;32223;53.654;10.014;2023-06-26T07:21:43;7.00;;;5.20;;
46507;SDS011;32223;53.654;10.014;2023-06-26T07:24:09;8.90;;;5.28;;
46507;SDS011;32223;53.654;10.014;2023-06-26T07:26:35;9.85;;;5.35;;
46507;SDS011;32223;53.654;10.014;2023-06-26T07:29:01;7.25;;;5.07;;
46507;SDS011;32223;53.654;10.014;2023-06-26T07:31:26;6.40;;;5.03;;
46507;SDS011;32223;53.654;10.014;2023-06-26T07:33:52;6.35;;;4.88;;
46507;SDS011;32223;53.654;10.014;2023-06-26T07:36:18;7.43;;;4.95;;
46507;SDS011;32223;53.654;10.014;2023-06-26T07:38:43;6.15;;;5.30;;
46507;SDS011;32223;53.654;10.014;2023-06-26T07:41:09;7.75;;;5.60;;
46507;SDS011;32223;53.654;10.014;2023-06-26T07:43:34;7.72;;;4.60;;
46507;SDS011;32223;53.654;10.014;2023-06-26T07:46:00;8.65;;;5.72;;
46507;SDS011;32223;53.654;10.014;2023-06-26T07:48:25;6.53;;;5.07;;
46507;SDS011;32223;53.654;10.014;2023-06-26T07:50:51;7.30;;;4.90;;
46507;SDS011;32223;53.654;10.014;2023-06-26T07:53:17;6.75;;;4.70;;
46507;SDS011;32223;53.654;10.014;2023-06-26T07:55:42;8.10;;;4.82;;
46507;SDS011;32223;53.654;10.014;2023-06-26T07:58:08;8.82;;;4.50;;
46507;SDS011;32223;53.654;10.014;2023-06-26T08:00:34;6.90;;;5.00;;
46507;SDS011;32223;53.654;10.014;2023-06-26T08:03:00;6.60;;;5.55;;
46507;SDS011;32223;53.654;10.014;2023-06-26T08:05:26;6.60;;;4.50;;
46507;SDS011;32223;53.654;10.014;2023-06-26T08:07:51;7.68;;;5.03;;
46507;SDS011;32223;53.654;10.014;2023-06-26T08:10:17;6.80;;;5.63;;
46507;SDS011;32223;53.654;10.014;2023-06-26T08:12:43;9.35;;;5.22;;
46507;SDS011;32223;53.654;10.014;2023-06-26T08:15:10;7.13;;;5.70;;
46507;SDS011;32223;53.654;10.014;2023-06-26T08:17:36;8.60;;;4.85;;
46507;SDS011;32223;53.654;10.014;2023-06-26T08:20:03;6.38;;;5.10;;
46507;SDS011;32223;53.654;10.014;2023-06-26T08:22:29;9.68;;;4.80;;
46507;SDS011;32223;53.654;10.014;2023-06-26T08:24:55;6.75;;;4.88;;
46507;SDS011;32223;53.654;10.014;2023-06-26T08:27:21;7.20;;;4.50;;
46507;SDS011;32223;53.654;10.014;2023-06-26T08:29:46;5.53;;;4.63;;
46507;SDS011;32223;53.654;10.014;2023-06-26T08:32:12;6.18;;;4.82;;
46507;SDS011;32223;53.654;10.014;2023-06-26T08:34:37;6.00;;;4.80;;
46507;SDS011;32223;53.654;10.014;2023-06-26T08:37:03;21.05;;;15.40;;
46507;SDS011;32223;53.654;10.014;2023-06-26T08:39:29;20.30;;;14.05;;
46507;SDS011;32223;53.654;10.014;2023-06-26T08:41:54;9.55;;;6.70;;
46507;SDS011;32223;53.654;10.014;2023-06-26T08:44:20;6.50;;;5.60;;
46507;SDS011;32223;53.654;10.014;2023-06-26T08:46:49;7.05;;;4.80;;
46507;SDS011;32223;53.654;10.014;2023-06-26T08:49:25;7.22;;;4.78;;
46507;SDS011;32223;53.654;10.014;2023-06-26T08:52:17;7.90;;;5.60;;
46507;SDS011;32223;53.654;10.014;2023-06-26T08:54:49;11.05;;;4.57;;
46507;SDS011;32223;53.654;10.014;2023-06-26T08:57:21;4.82;;;4.32;;
46507;SDS011;32223;53.654;10.014;2023-06-26T08:59:48;6.70;;;4.90;;
46507;SDS011;32223;53.654;10.014;2023-06-26T09:02:14;7.93;;;4.40;;
46507;SDS011;32223;53.654;10.014;2023-06-26T09:04:40;5.80;;;4.65;;
46507;SDS011;32223;53.654;10.014;2023-06-26T09:07:06;7.22;;;5.30;;
46507;SDS011;32223;53.654;10.014;2023-06-26T09:09:32;6.00;;;5.20;;
46507;SDS011;32223;53.654;10.014;2023-06-26T09:11:57;5.53;;;4.93;;
46507;SDS011;32223;53.654;10.014;2023-06-26T09:14:23;8.35;;;5.47;;
46507;SDS011;32223;53.654;10.014;2023-06-26T09:16:49;6.90;;;5.50;;
46507;SDS011;32223;53.654;10.014;2023-06-26T09:19:15;9.27;;;5.72;;
46507;SDS011;32223;53.654;10.014;2023-06-26T09:21:41;9.30;;;5.97;;
46507;SDS011;32223;53.654;10.014;2023-06-26T09:24:08;8.43;;;5.97;;
46507;SDS011;32223;53.654;10.014;2023-06-26T09:26:37;8.38;;;6.88;;
46507;SDS011;32223;53.654;10.014;2023-06-26T09:29:05;12.15;;;6.32;;
46507;SDS011;32223;53.654;10.014;2023-06-26T09:31:32;10.73;;;6.50;;
46507;SDS011;32223;53.654;10.014;2023-06-26T09:33:59;7.70;;;5.82;;
46507;SDS011;32223;53.654;10.014;2023-06-26T09:36:27;9.85;;;6.22;;
46507;SDS011;32223;53.654;10.014;2023-06-26T09:38:54;10.57;;;6.20;;
46507;SDS011;32223;53.654;10.014;2023-06-26T09:41:20;9.57;;;7.63;;
46507;SDS011;32223;53.654;10.014;2023-06-26T09:43:49;11.57;;;7.72;;
46507;SDS011;32223;53.654;10.014;2023-06-26T09:46:37;10.07;;;7.65;;
46507;SDS011;32223;53.654;10.014;2023-06-26T09:49:03;10.60;;;7.80;;
46507;SDS011;32223;53.654;10.014;2023-06-26T09:51:30;12.02;;;7.82;;
46507;SDS011;32223;53.654;10.014;2023-06-26T09:53:57;11.13;;;7.25;;
46507;SDS011;32223;53.654;10.014;2023-06-26T09:56:24;9.07;;;6.72;;
46507;SDS011;32223;53.654;10.014;2023-06-26T09:58:50;10.70;;;7.03;;
46507;SDS011;32223;53.654;10.014;2023-06-26T10:01:17;14.45;;;7.28;;
46507;SDS011;32223;53.654;10.014;2023-06-26T10:03:43;10.05;;;6.93;;
46507;SDS011;32223;53.654;10.014;2023-06-26T10:06:09;10.73;;;6.93;;
46507;SDS011;32223;53.654;10.014;2023-06-26T10:08:37;11.32;;;7.57;;
46507;SDS011;32223;53.654;10.014;2023-06-26T10:11:04;10.77;;;6.95;;
46507;SDS011;32223;53.654;10.014;2023-06-26T10:13:35;8.55;;;7.20;;
46507;SDS011;32223;53.654;10.014;2023-06-26T10:16:04;8.77;;;6.85;;
46507;SDS011;32223;53.654;10.014;2023-06-26T10:18:33;15.43;;;7.88;;
46507;SDS011;32223;53.654;10.014;2023-06-26T10:21:03;10.65;;;8.02;;
46507;SDS011;32223;53.654;10.014;2023-06-26T10:23:31;13.45;;;9.20;;
46507;SDS011;32223;53.654;10.014;2023-06-26T10:25:58;11.65;;;8.48;;
46507;SDS011;32223;53.654;10.014;2023-06-26T10:28:26;14.70;;;9.52;;
46507;SDS011;32223;53.654;10.014;2023-06-26T10:30:55;14.93;;;9.27;;
46507;SDS011;32223;53.654;10.014;2023-06-26T10:33:21;14.23;;;9.07;;
46507;SDS011;32223;53.654;10.014;2023-06-26T10:35:47;16.10;;;8.68;;
46507;SDS011;32223;53.654;10.014;2023-06-26T10:38:14;11.77;;;8.43;;
46507;SDS011;32223;53.654;10.014;2023-06-26T10:40:43;9.57;;;7.75;;
46507;SDS011;32223;53.654;10.014;2023-06-26T10:43:10;9.25;;;7.53;;
46507;SDS011;32223;53.654;10.014;2023-06-26T10:45:43;9.30;;;7.13;;
46507;SDS011;32223;53.654;10.014;2023-06-26T10:48:17;8.95;;;6.53;;
46507;SDS011;32223;53.654;10.014;2023-06-26T10:50:43;13.45;;;6.63;;
46507;SDS011;32223;53.654;10.014;2023-06-26T10:56:03;7.70;;;5.25;;
46507;SDS011;32223;53.654;10.014;2023-06-26T11:06:23;7.13;;;5.50;;
46507;SDS011;32223;53.654;10.014;2023-06-26T11:09:08;12.93;;;6.30;;
46507;SDS011;32223;53.654;10.014;2023-06-26T11:14:19;9.00;;;6.05;;
46507;SDS011;32223;53.654;10.014;2023-06-26T11:16:46;8.77;;;6.25;;
46507;SDS011;32223;53.654;10.014;2023-06-26T11:19:13;8.90;;;5.43;;
46507;SDS011;32223;53.654;10.014;2023-06-26T11:21:40;8.85;;;5.22;;
46507;SDS011;32223;53.654;10.014;2023-06-26T11:24:06;9.38;;;4.95;;
46507;SDS011;32223;53.654;10.014;2023-06-26T11:26:39;12.45;;;5.25;;
46507;SDS011;32223;53.654;10.014;2023-06-26T11:29:09;9.90;;;4.63;;
46507;SDS011;32223;53.654;10.014;2023-06-26T11:31:39;9.52;;;4.55;;
46507;SDS011;32223;53.654;10.014;2023-06-26T11:34:08;17.30;;;5.72;;
46507;SDS011;32223;53.654;10.014;2023-06-26T11:36:36;18.00;;;4.65;;
46507;SDS011;32223;53.654;10.014;2023-06-26T11:39:04;17.58;;;6.20;;
46507;SDS011;32223;53.654;10.014;2023-06-26T11:41:31;13.38;;;4.22;;
46507;SDS011;32223;53.654;10.014;2023-06-26T11:44:01;8.55;;;3.38;;
46507;SDS011;32223;53.654;10.014;2023-06-26T11:46:28;13.77;;;4.35;;
46507;SDS011;32223;53.654;10.014;2023-06-26T11:48:53;7.22;;;2.97;;
46507;SDS011;32223;53.654;10.014;2023-06-26T11:51:19;6.93;;;3.00;;
46507;SDS011;32223;53.654;10.014;2023-06-26T11:53:46;8.52;;;3.15;;
46507;SDS011;32223;53.654;10.014;2023-06-26T11:56:13;9.80;;;2.92;;
46507;SDS011;32223;53.654;10.014;2023-06-26T12:01:43;6.97;;;2.10;;
46507;SDS011;32223;53.654;10.014;2023-06-26T12:04:10;6.80;;;2.03;;
46507;SDS011;32223;53.654;10.014;2023-06-26T12:06:38;9.93;;;2.50;;
46507;SDS011;32223;53.654;10.014;2023-06-26T12:09:06;10.48;;;2.47;;
46507;SDS011;32223;53.654;10.014;2023-06-26T12:11:35;6.07;;;1.98;;
46507;SDS011;32223;53.654;10.014;2023-06-26T12:14:01;7.05;;;2.30;;
46507;SDS011;32223;53.654;10.014;2023-06-26T12:16:29;5.22;;;2.20;;
46507;SDS011;32223;53.654;10.014;2023-06-26T12:19:01;6.80;;;2.90;;
46507;SDS011;32223;53.654;10.014;2023-06-26T12:24:03;15.05;;;3.17;;
46507;SDS011;32223;53.654;10.014;2023-06-26T12:26:29;9.63;;;2.47;;
46507;SDS011;32223;53.654;10.014;2023-06-26T12:29:02;6.90;;;2.17;;
46507;SDS011;32223;53.654;10.014;2023-06-26T12:31:33;7.63;;;2.00;;
46507;SDS011;32223;53.654;10.014;2023-06-26T12:33:59;8.65;;;2.92;;
46507;SDS011;32223;53.654;10.014;2023-06-26T12:36:25;6.22;;;2.08;;
46507;SDS011;32223;53.654;10.014;2023-06-26T12:38:52;10.52;;;2.35;;
46507;SDS011;32223;53.654;10.014;2023-06-26T12:41:18;7.85;;;2.60;;
46507;SDS011;32223;53.654;10.014;2023-06-26T12:43:45;7.80;;;3.35;;
46507;SDS011;32223;53.654;10.014;2023-06-26T12:46:11;9.43;;;2.50;;
46507;SDS011;32223;53.654;10.014;2023-06-26T12:48:40;11.60;;;2.67;;
46507;SDS011;32223;53.654;10.014;2023-06-26T12:51:11;9.85;;;2.10;;
46507;SDS011;32223;53.654;10.014;2023-06-26T12:53:40;9.75;;;2.03;;
46507;SDS011;32223;53.654;10.014;2023-06-26T12:56:07;6.10;;;2.15;;
46507;SDS011;32223;53.654;10.014;2023-06-26T12:58:36;7.13;;;2.03;;
46507;SDS011;32223;53.654;10.014;2023-06-26T13:01:03;5.63;;;1.90;;
46507;SDS011;32223;53.654;10.014;2023-06-26T13:03:30;5.43;;;1.63;;
46507;SDS011;32223;53.654;10.014;2023-06-26T13:05:56;6.75;;;1.60;;
46507;SDS011;32223;53.654;10.014;2023-06-26T13:08:22;4.20;;;1.33;;
46507;SDS011;32223;53.654;10.014;2023-06-26T13:10:47;7.95;;;2.28;;
46507;SDS011;32223;53.654;10.014;2023-06-26T13:13:13;6.93;;;1.30;;
46507;SDS011;32223;53.654;10.014;2023-06-26T13:15:38;5.78;;;1.65;;
46507;SDS011;32223;53.654;10.014;2023-06-26T13:18:04;4.78;;;2.30;;
46507;SDS011;32223;53.654;10.014;2023-06-26T13:20:30;4.15;;;1.88;;
46507;SDS011;32223;53.654;10.014;2023-06-26T13:22:55;4.93;;;1.67;;
46507;SDS011;32223;53.654;10.014;2023-06-26T13:25:21;3.30;;;1.30;;
46507;SDS011;32223;53.654;10.014;2023-06-26T13:27:47;6.07;;;2.42;;
46507;SDS011;32223;53.654;10.014;2023-06-26T13:30:14;5.75;;;1.60;;
46507;SDS011;32223;53.654;10.014;2023-06-26T13:32:41;11.15;;;2.33;;
46507;SDS011;32223;53.654;10.014;2023-06-26T13:35:07;5.13;;;1.90;;
46507;SDS011;32223;53.654;10.014;2023-06-26T13:37:33;5.65;;;2.17;;
46507;SDS011;32223;53.654;10.014;2023-06-26T13:39:59;4.88;;;1.88;;
46507;SDS011;32223;53.654;10.014;2023-06-26T13:42:26;5.70;;;2.13;;
46507;SDS011;32223;53.654;10.014;2023-06-26T13:44:53;2.33;;;1.42;;
46507;SDS011;32223;53.654;10.014;2023-06-26T13:47:18;3.67;;;1.90;;
46507;SDS011;32223;53.654;10.014;2023-06-26T13:49:44;5.82;;;1.65;;
46507;SDS011;32223;53.654;10.014;2023-06-26T13:52:09;4.00;;;1.48;;
46507;SDS011;32223;53.654;10.014;2023-06-26T13:54:35;5.57;;;1.45;;
46507;SDS011;32223;53.654;10.014;2023-06-26T13:57:06;5.05;;;1.58;;
46507;SDS011;32223;53.654;10.014;2023-06-26T13:59:33;7.63;;;1.55;;
46507;SDS011;32223;53.654;10.014;2023-06-26T14:01:59;2.70;;;1.27;;
46507;SDS011;32223;53.654;10.014;2023-06-26T14:04:25;4.60;;;1.50;;
46507;SDS011;32223;53.654;10.014;2023-06-26T14:06:52;6.47;;;1.55;;
46507;SDS011;32223;53.654;10.014;2023-06-26T14:09:18;4.97;;;1.17;;
46507;SDS011;32223;53.654;10.014;2023-06-26T14:11:44;3.50;;;1.27;;
46507;SDS011;32223;53.654;10.014;2023-06-26T14:14:09;4.60;;;1.80;;
46507;SDS011;32223;53.654;10.014;2023-06-26T14:16:35;2.13;;;1.02;;
46507;SDS011;32223;53.654;10.014;2023-06-26T14:19:01;6.05;;;1.20;;
46507;SDS011;32223;53.654;10.014;2023-06-26T14:21:27;3.67;;;1.33;;
46507;SDS011;32223;53.654;10.014;2023-06-26T14:23:56;2.88;;;1.20;;
46507;SDS011;32223;53.654;10.014;2023-06-26T14:26:21;3.70;;;1.17;;
46507;SDS011;32223;53.654;10.014;2023-06-26T14:28:47;4.50;;;1.70;;
46507;SDS011;32223;53.654;10.014;2023-06-26T14:31:13;5.13;;;1.40;;
46507;SDS011;32223;53.654;10.014;2023-06-26T14:33:39;4.25;;;1.00;;
46507;SDS011;32223;53.654;10.014;2023-06-26T14:36:04;4.13;;;1.40;;
46507;SDS011;32223;53.654;10.014;2023-06-26T14:38:30;2.28;;;0.90;;
46507;SDS011;32223;53.654;10.014;2023-06-26T14:40:55;5.25;;;1.73;;
46507;SDS011;32223;53.654;10.014;2023-06-26T14:43:21;2.92;;;1.10;;
46507;SDS011;32223;53.654;10.014;2023-06-26T14:45:47;2.17;;;1.20;;
46507;SDS011;32223;53.654;10.014;2023-06-26T14:48:12;1.40;;;0.70;;
46507;SDS011;32223;53.654;10.014;2023-06-26T14:50:38;3.45;;;1.05;;
46507;SDS011;32223;53.654;10.014;2023-06-26T14:53:04;3.53;;;1.38;;
46507;SDS011;32223;53.654;10.014;2023-06-26T14:55:30;3.80;;;1.40;;
46507;SDS011;32223;53.654;10.014;2023-06-26T14:57:55;3.47;;;1.48;;
46507;SDS011;32223;53.654;10.014;2023-06-26T15:00:21;4.57;;;1.20;;